createdAt,value
2023-05-17T00:00:27.491Z,999.87
2023-05-17T00:01:27.398Z,999.86
2023-05-17T00:04:09.037Z,999.91
2023-05-17T00:05:21.868Z,999.84
2023-05-17T00:06:43.712Z,999.83
2023-05-17T00:07:43.962Z,999.90
2023-05-17T00:08:43.734Z,999.93
2023-05-17T00:09:42.727Z,999.90
2023-05-17T00:10:43.482Z,999.94
2023-05-17T00:11:44.208Z,999.94
2023-05-17T00:12:46.111Z,999.95
2023-05-17T00:13:43.656Z,999.89
2023-05-17T00:16:24.870Z,999.96
2023-05-17T00:17:33.700Z,999.90
2023-05-17T00:18:26.529Z,999.91
2023-05-17T00:19:58.752Z,999.91
2023-05-17T00:21:00.816Z,999.87
2023-05-17T00:21:59.842Z,999.88
2023-05-17T00:22:58.640Z,999.90
2023-05-17T00:23:59.682Z,999.90
2023-05-17T00:24:58.703Z,999.88
2023-05-17T00:26:01.073Z,999.86
2023-05-17T00:26:58.740Z,999.90
2023-05-17T00:27:26.365Z,999.92
2023-05-17T00:28:59.673Z,999.92
2023-05-17T00:30:12.882Z,999.90
2023-05-17T00:30:26.304Z,999.96
2023-05-17T00:32:14.276Z,999.85
2023-05-17T00:32:59.493Z,999.95
2023-05-17T00:33:26.246Z,999.96
2023-05-17T00:34:58.616Z,999.93
2023-05-17T00:35:59.787Z,999.94
2023-05-17T00:36:52.394Z,999.91
2023-05-17T00:43:20.103Z,999.99
2023-05-17T00:44:56.221Z,999.99
2023-05-17T00:45:53.865Z,1000.01
2023-05-17T00:46:53.963Z,1000.01
2023-05-17T00:52:22.904Z,1000.01
2023-05-17T00:53:30.617Z,999.99
2023-05-17T00:54:57.745Z,999.94
2023-05-17T00:55:24.450Z,1000.00
2023-05-17T00:56:56.762Z,1000.00
2023-05-17T00:57:58.333Z,1000.00
2023-05-17T00:58:59.943Z,999.97
2023-05-17T01:00:00.555Z,999.95
2023-05-17T01:00:24.250Z,999.99
2023-05-17T01:05:10.458Z,999.99
2023-05-17T01:06:19.312Z,1000.01
2023-05-17T01:07:19.201Z,1000.01
2023-05-17T01:08:20.275Z,1000.02
2023-05-17T01:09:19.453Z,1000.06
2023-05-17T01:10:38.415Z,1000.05
2023-05-17T01:11:44.368Z,1000.18
2023-05-17T01:12:45.530Z,1000.12
2023-05-17T01:13:46.752Z,1000.07
2023-05-17T01:14:46.318Z,1000.13
2023-05-17T01:15:11.910Z,1000.15
2023-05-17T01:16:45.190Z,1000.13
2023-05-17T01:18:31.640Z,1000.05
2023-05-17T01:19:39.464Z,1000.09
2023-05-17T01:20:39.305Z,1000.09
2023-05-17T01:22:06.510Z,1000.05
2023-05-17T01:22:32.944Z,1000.08
2023-05-17T01:24:05.333Z,1000.05
2023-05-17T01:25:06.324Z,1000.06
2023-05-17T01:26:05.253Z,1000.05
2023-05-17T01:27:06.592Z,1000.02
2023-05-17T01:28:05.335Z,1000.12
2023-05-17T01:29:05.268Z,1000.11
2023-05-17T01:30:06.172Z,1000.03
2023-05-17T01:31:05.228Z,1000.05
2023-05-17T01:31:32.825Z,1000.07
2023-05-17T01:33:05.188Z,1000.07
2023-05-17T01:33:32.902Z,1000.13
2023-05-17T01:34:32.860Z,1000.02
2023-05-17T01:36:06.346Z,999.96
2023-05-17T01:36:32.811Z,1000.01
2023-05-17T01:37:32.795Z,1000.01
2023-05-17T01:38:32.691Z,1000.04
2023-05-17T01:39:32.570Z,1000.08
2023-05-17T01:41:07.431Z,1000.15
2023-05-17T01:41:32.838Z,1000.11
2023-05-17T01:42:32.784Z,1000.10
2023-05-17T01:44:05.083Z,1000.10
2023-05-17T01:44:33.184Z,1000.14
2023-05-17T01:46:06.596Z,1000.12
2023-05-17T01:47:10.003Z,1000.11
2023-05-17T01:48:09.827Z,1000.08
2023-05-17T01:49:06.270Z,1000.12
2023-05-17T01:50:11.510Z,1000.13
2023-05-17T01:51:06.159Z,1000.11
2023-05-17T01:52:05.118Z,1000.15
2023-05-17T01:52:32.596Z,1000.14
2023-05-17T01:54:06.054Z,1000.17
2023-05-17T01:55:07.154Z,1000.12
2023-05-17T01:56:11.651Z,1000.11
2023-05-17T01:58:49.073Z,1000.18
2023-05-17T02:01:39.488Z,1000.20
2023-05-17T02:02:47.350Z,1000.15
2023-05-17T02:03:48.282Z,1000.17
2023-05-17T02:04:56.806Z,1000.14
2023-05-17T02:05:48.492Z,1000.17
2023-05-17T02:06:47.114Z,1000.17
2023-05-17T02:07:48.219Z,1000.20
2023-05-17T02:08:58.125Z,1000.20
2023-05-17T02:10:15.720Z,1000.23
2023-05-17T02:11:14.286Z,1000.23
2023-05-17T02:12:13.262Z,1000.34
2023-05-17T02:13:13.239Z,1000.35
2023-05-17T02:14:14.249Z,1000.30
2023-05-17T02:16:00.478Z,1000.25
2023-05-17T02:17:08.270Z,1000.27
2023-05-17T02:18:10.319Z,1000.30
2023-05-17T02:19:10.477Z,1000.19
2023-05-17T02:20:08.266Z,1000.24
2023-05-17T02:21:45.640Z,1000.23
2023-05-17T02:22:02.010Z,1000.23
2023-05-17T02:25:17.299Z,1000.28
2023-05-17T02:26:25.055Z,1000.33
2023-05-17T02:27:28.006Z,1000.25
2023-05-17T02:28:27.155Z,1000.21
2023-05-17T02:29:25.033Z,1000.21
2023-05-17T02:30:30.187Z,1000.22
2023-05-17T02:33:44.366Z,1000.35
2023-05-17T02:34:52.077Z,1000.37
2023-05-17T02:35:51.980Z,1000.34
2023-05-17T02:36:52.051Z,1000.37
2023-05-17T02:39:12.167Z,1000.39
2023-05-17T02:40:20.027Z,1000.41
2023-05-17T02:41:20.076Z,1000.38
2023-05-17T02:42:22.183Z,1000.40
2023-05-17T02:45:06.308Z,1000.45
2023-05-17T02:46:17.073Z,1000.38
2023-05-17T02:47:15.114Z,1000.35
2023-05-17T02:48:14.068Z,1000.33
2023-05-17T02:49:14.111Z,1000.39
2023-05-17T02:50:14.016Z,1000.32
2023-05-17T02:51:42.559Z,1000.36
2023-05-17T02:52:08.778Z,1000.32
2023-05-17T02:53:40.995Z,1000.36
2023-05-17T02:54:41.025Z,1000.28
2023-05-17T02:55:42.398Z,1000.28
2023-05-17T02:56:07.646Z,1000.24
2023-05-17T02:57:40.076Z,1000.26
2023-05-17T02:58:39.981Z,1000.25
2023-05-17T02:59:40.948Z,1000.26
2023-05-17T03:00:50.605Z,1000.29
2023-05-17T03:01:07.660Z,1000.26
2023-05-17T03:02:40.209Z,1000.24
2023-05-17T03:03:40.410Z,1000.23
2023-05-17T03:04:41.020Z,1000.17
2023-05-17T03:05:42.118Z,1000.24
2023-05-17T03:06:41.683Z,1000.20
2023-05-17T03:07:53.079Z,1000.26
2023-05-17T03:08:07.374Z,1000.30
2023-05-17T03:09:41.206Z,1000.33
2023-05-17T03:10:52.332Z,1000.38
2023-05-17T03:11:07.672Z,1000.34
2023-05-17T03:12:34.787Z,1000.31
2023-05-17T03:13:39.831Z,1000.34
2023-05-17T03:14:41.899Z,1000.30
2023-05-17T03:15:40.864Z,1000.29
2023-05-17T03:16:40.054Z,1000.31
2023-05-17T03:17:40.136Z,1000.32
2023-05-17T03:18:40.052Z,1000.28
2023-05-17T03:19:41.153Z,1000.27
2023-05-17T03:20:40.817Z,1000.26
2023-05-17T03:21:07.317Z,1000.22
2023-05-17T03:22:40.708Z,1000.29
2023-05-17T03:23:07.435Z,1000.33
2023-05-17T03:24:42.177Z,1000.29
2023-05-17T03:25:40.817Z,1000.28
2023-05-17T03:26:39.853Z,1000.29
2023-05-17T03:27:39.805Z,1000.40
2023-05-17T03:28:43.407Z,1000.38
2023-05-17T03:29:07.250Z,1000.44
2023-05-17T03:30:39.800Z,1000.42
2023-05-17T03:31:39.758Z,1000.46
2023-05-17T03:32:40.767Z,1000.48
2023-05-17T03:33:41.106Z,1000.43
2023-05-17T03:34:39.624Z,1000.47
2023-05-17T03:35:39.643Z,1000.43
2023-05-17T03:36:07.411Z,1000.54
2023-05-17T03:42:43.814Z,1000.56
2023-05-17T03:43:51.569Z,1000.61
2023-05-17T03:44:43.969Z,1000.64
2023-05-17T03:45:51.575Z,1000.62
2023-05-17T03:47:29.819Z,1000.60
2023-05-17T03:52:50.006Z,1000.71
2023-05-17T03:53:50.110Z,1000.71
2023-05-17T03:54:50.062Z,1000.68
2023-05-17T03:57:39.564Z,1000.72
2023-05-17T03:58:47.287Z,1000.68
2023-05-17T03:59:47.268Z,1000.71
2023-05-17T04:00:47.238Z,1000.68
2023-05-17T04:01:48.525Z,1000.70
2023-05-17T04:02:47.314Z,1000.71
2023-05-17T04:04:13.907Z,1000.72
2023-05-17T04:05:13.338Z,1000.75
2023-05-17T04:06:14.636Z,1000.71
2023-05-17T04:06:40.928Z,1000.70
2023-05-17T04:08:08.446Z,1000.66
2023-05-17T04:09:13.275Z,1000.71
2023-05-17T04:10:13.180Z,1000.74
2023-05-17T04:11:14.356Z,1000.69
2023-05-17T04:15:50.615Z,1000.71
2023-05-17T04:16:58.206Z,1000.71
2023-05-17T04:17:50.892Z,1000.80
2023-05-17T04:18:59.216Z,1000.79
2023-05-17T04:19:58.270Z,1000.77
2023-05-17T04:21:25.579Z,1000.78
2023-05-17T04:21:51.815Z,1000.79
2023-05-17T04:25:06.330Z,1000.95
2023-05-17T04:26:17.099Z,1000.92
2023-05-17T04:27:13.931Z,1000.92
2023-05-17T04:30:01.049Z,1001.01
2023-05-17T04:31:08.763Z,1000.97
2023-05-17T04:32:01.140Z,1001.02
2023-05-17T04:33:08.814Z,1001.01
2023-05-17T04:34:10.142Z,1001.00
2023-05-17T04:35:11.279Z,1001.02
2023-05-17T04:36:52.748Z,1001.02
2023-05-17T04:37:02.617Z,1000.98
2023-05-17T04:38:34.733Z,1001.08
2023-05-17T04:39:35.789Z,1001.02
2023-05-17T04:40:02.246Z,1001.08
2023-05-17T04:41:02.308Z,1001.09
2023-05-17T04:42:02.214Z,1001.11
2023-05-17T04:43:35.915Z,1001.11
2023-05-17T04:44:02.244Z,1001.16
2023-05-17T04:45:34.678Z,1001.09
2023-05-17T04:46:02.278Z,1001.13
2023-05-17T04:47:02.288Z,1001.15
2023-05-17T04:48:02.252Z,1001.15
2023-05-17T04:49:36.961Z,1001.14
2023-05-17T04:50:02.266Z,1001.10
2023-05-17T04:51:34.856Z,1001.18
2023-05-17T04:52:40.595Z,1001.22
2023-05-17T04:53:35.993Z,1001.19
2023-05-17T04:54:02.395Z,1001.23
2023-05-17T04:55:29.975Z,1001.17
2023-05-17T04:56:02.157Z,1001.22
2023-05-17T04:57:36.568Z,1001.17
2023-05-17T05:00:17.072Z,1001.24
2023-05-17T05:01:25.768Z,1001.23
2023-05-17T05:02:25.971Z,1001.26
2023-05-17T05:03:25.836Z,1001.21
2023-05-17T05:04:24.714Z,1001.20
2023-05-17T05:05:24.642Z,1001.18
2023-05-17T05:06:17.010Z,1001.22
2023-05-17T05:07:25.926Z,1001.33
2023-05-17T05:10:08.107Z,1001.29
2023-05-17T05:11:15.837Z,1001.37
2023-05-17T05:12:27.467Z,1001.37
2023-05-17T05:13:16.908Z,1001.33
2023-05-17T05:14:15.893Z,1001.37
2023-05-17T05:15:42.981Z,1001.40
2023-05-17T05:16:09.531Z,1001.41
2023-05-17T05:17:56.318Z,1001.37
2023-05-17T05:18:41.961Z,1001.40
2023-05-17T05:19:41.883Z,1001.47
2023-05-17T05:20:41.841Z,1001.36
2023-05-17T05:21:44.335Z,1001.43
2023-05-17T05:22:41.895Z,1001.42
2023-05-17T05:23:09.530Z,1001.47
2023-05-17T05:24:42.828Z,1001.47
2023-05-17T05:25:44.934Z,1001.47
2023-05-17T05:26:09.330Z,1001.48
2023-05-17T05:27:41.972Z,1001.49
2023-05-17T05:28:09.427Z,1001.51
2023-05-17T05:29:42.774Z,1001.49
2023-05-17T05:30:09.321Z,1001.50
2023-05-17T05:33:25.721Z,1001.47
2023-05-17T05:34:34.307Z,1001.42
2023-05-17T05:35:25.629Z,1001.45
2023-05-17T05:36:34.296Z,1001.50
2023-05-17T05:37:59.369Z,1001.49
2023-05-17T05:38:27.031Z,1001.47
2023-05-17T05:40:02.531Z,1001.46
2023-05-17T05:40:27.065Z,1001.48
2023-05-17T06:05:29.158Z,1001.66
2023-05-17T06:08:50.352Z,1001.73
2023-05-17T06:10:17.614Z,1001.70
2023-05-17T06:18:03.161Z,1001.70
2023-05-17T06:27:59.172Z,1001.96
2023-05-17T06:35:43.739Z,1001.96
2023-05-17T06:58:02.054Z,1002.24
2023-05-17T06:59:42.321Z,1002.26
2023-05-17T07:00:11.940Z,1002.25
2023-05-17T07:01:19.905Z,1002.29
2023-05-17T07:02:25.328Z,1002.27
2023-05-17T07:03:21.120Z,1002.27
2023-05-17T07:04:14.975Z,1002.34
2023-05-17T07:05:04.947Z,1002.40
2023-05-17T07:08:23.861Z,1002.38
2023-05-17T07:11:23.762Z,1002.33
2023-05-17T07:17:23.983Z,1002.41
2023-05-17T07:18:25.777Z,1002.36
2023-05-17T07:22:37.445Z,1002.46
2023-05-17T07:23:37.274Z,1002.46
2023-05-17T07:24:37.282Z,1002.51
2023-05-17T07:25:37.362Z,1002.40
2023-05-17T07:26:38.903Z,1002.43
2023-05-17T07:27:38.347Z,1002.50
2023-05-17T07:28:37.885Z,1002.45
2023-05-17T07:29:53.575Z,1002.50
2023-05-17T07:31:54.871Z,1002.52
2023-05-17T07:32:53.325Z,1002.53
2023-05-17T07:34:48.342Z,1002.50
2023-05-17T07:35:52.843Z,1002.48
2023-05-17T07:36:46.133Z,1002.35
2023-05-17T07:40:03.391Z,1002.42
2023-05-17T07:41:03.493Z,1002.42
2023-05-17T07:42:05.324Z,1002.39
2023-05-17T07:43:03.235Z,1002.36
2023-05-17T07:48:51.283Z,1002.35
2023-05-17T07:49:52.764Z,1002.40
2023-05-17T07:52:04.252Z,1002.47
2023-05-17T07:52:53.688Z,1002.45
2023-05-17T07:56:53.473Z,1002.47
2023-05-17T07:57:53.006Z,1002.48
2023-05-17T07:58:59.590Z,1002.55
2023-05-17T08:02:05.431Z,1002.53
2023-05-17T08:03:05.527Z,1002.59
2023-05-17T08:04:10.381Z,1002.63
2023-05-17T08:05:09.219Z,1002.62
2023-05-17T08:08:55.211Z,1002.74
2023-05-17T08:10:00.321Z,1002.66
2023-05-17T08:10:54.450Z,1002.72
2023-05-17T08:11:59.298Z,1002.65
2023-05-17T08:12:55.812Z,1002.69
2023-05-17T08:14:11.069Z,1002.66
2023-05-17T08:15:32.872Z,1002.71
2023-05-17T08:16:18.868Z,1002.64
2023-05-17T08:16:55.786Z,1002.73
2023-05-17T08:18:00.373Z,1002.77
2023-05-17T08:18:55.492Z,1002.70
2023-05-17T08:20:06.958Z,1002.76
2023-05-17T08:22:18.655Z,1002.77
2023-05-17T08:22:22.841Z,1002.73
2023-05-17T08:23:23.801Z,1002.78
2023-05-17T08:26:14.247Z,1002.81
2023-05-17T08:27:27.789Z,1002.84
2023-05-17T08:28:21.283Z,1002.83
2023-05-17T08:29:13.746Z,1002.74
2023-05-17T08:30:21.495Z,1002.74
2023-05-17T08:31:15.958Z,1002.80
2023-05-17T08:32:14.629Z,1002.76
2023-05-17T08:33:25.253Z,1002.79
2023-05-17T08:34:19.809Z,1002.73
2023-05-17T08:35:56.970Z,1002.82
2023-05-17T08:38:00.139Z,1002.71
2023-05-17T08:41:30.821Z,1002.78
2023-05-17T08:43:10.432Z,1002.75
2023-05-17T08:56:01.117Z,1002.68
2023-05-17T08:57:03.721Z,1002.68
2023-05-17T08:58:19.486Z,1002.65
2023-05-17T08:59:08.824Z,1002.75
2023-05-17T09:00:21.246Z,1002.72
2023-05-17T09:01:02.788Z,1002.73
2023-05-17T09:02:28.432Z,1002.69
2023-05-17T09:03:11.927Z,1002.72
2023-05-17T09:04:06.759Z,1002.73
2023-05-17T09:05:06.804Z,1002.73
2023-05-17T09:06:04.883Z,1002.66
2023-05-17T09:07:02.043Z,1002.74
2023-05-17T09:12:05.420Z,1002.73
2023-05-17T09:13:05.421Z,1002.70
2023-05-17T09:14:05.224Z,1002.69
2023-05-17T09:15:05.172Z,1002.67
2023-05-17T09:16:06.356Z,1002.70
2023-05-17T09:17:07.789Z,1002.62
2023-05-17T09:18:09.902Z,1002.60
2023-05-17T09:19:08.015Z,1002.59
2023-05-17T09:22:30.406Z,1002.63
2023-05-17T09:23:30.803Z,1002.57
2023-05-17T09:24:31.128Z,1002.60
2023-05-17T09:27:45.891Z,1002.61
2023-05-17T09:28:48.949Z,1002.68
2023-05-17T09:29:46.116Z,1002.69
2023-05-17T09:30:49.077Z,1002.70
2023-05-17T09:31:47.305Z,1002.69
2023-05-17T09:33:47.038Z,1002.62
2023-05-17T09:34:49.228Z,1002.67
2023-05-17T09:35:49.499Z,1002.64
2023-05-17T09:39:02.585Z,1002.62
2023-05-17T09:40:02.449Z,1002.62
2023-05-17T09:41:08.934Z,1002.61
2023-05-17T09:42:13.540Z,1002.69
2023-05-17T09:43:06.991Z,1002.72
2023-05-17T09:44:04.694Z,1002.67
2023-05-17T09:45:04.247Z,1002.64
2023-05-17T09:46:05.188Z,1002.59
2023-05-17T09:47:06.093Z,1002.62
2023-05-17T09:48:03.914Z,1002.62
2023-05-17T09:49:11.373Z,1002.61
2023-05-17T09:50:06.621Z,1002.59
2023-05-17T09:51:05.056Z,1002.58
2023-05-17T09:52:07.413Z,1002.60
2023-05-17T09:53:07.272Z,1002.54
2023-05-17T09:54:16.124Z,1002.62
2023-05-17T09:55:06.883Z,1002.48
2023-05-17T09:56:06.014Z,1002.52
2023-05-17T09:57:05.114Z,1002.53
2023-05-17T09:58:11.302Z,1002.52
2023-05-17T09:59:05.852Z,1002.52
2023-05-17T10:00:05.043Z,1002.59
2023-05-17T10:01:07.323Z,1002.56
2023-05-17T10:02:05.196Z,1002.63
2023-05-17T10:03:08.419Z,1002.64
2023-05-17T10:04:37.507Z,1002.59
2023-05-17T10:05:04.220Z,1002.61
2023-05-17T10:06:04.515Z,1002.64
2023-05-17T10:07:08.241Z,1002.60
2023-05-17T10:08:04.260Z,1002.55
2023-05-17T10:09:04.193Z,1002.52
2023-05-17T10:10:06.378Z,1002.46
2023-05-17T10:11:04.928Z,1002.55
2023-05-17T10:12:10.712Z,1002.49
2023-05-17T10:15:18.293Z,1002.51
2023-05-17T10:16:18.370Z,1002.48
2023-05-17T10:17:30.933Z,1002.52
2023-05-17T10:18:36.460Z,1002.56
2023-05-17T10:19:19.183Z,1002.47
2023-05-17T10:20:19.771Z,1002.51
2023-05-17T10:21:43.028Z,1002.55
2023-05-17T10:22:23.276Z,1002.51
2023-05-17T10:23:18.501Z,1002.48
2023-05-17T10:24:19.357Z,1002.43
2023-05-17T10:25:23.815Z,1002.46
2023-05-17T10:26:40.896Z,1002.39
2023-05-17T10:27:25.963Z,1002.41
2023-05-17T10:28:21.709Z,1002.40
2023-05-17T10:29:19.349Z,1002.36
2023-05-17T10:30:26.062Z,1002.41
2023-05-17T10:31:23.184Z,1002.49
2023-05-17T10:35:42.708Z,1002.60
2023-05-17T10:36:47.808Z,1002.63
2023-05-17T10:37:44.994Z,1002.55
2023-05-17T10:38:42.914Z,1002.46
2023-05-17T10:39:41.924Z,1002.52
2023-05-17T10:40:42.408Z,1002.58
2023-05-17T10:41:41.794Z,1002.55
2023-05-17T10:42:43.159Z,1002.57
2023-05-17T10:43:42.017Z,1002.57
2023-05-17T10:44:43.280Z,1002.54
2023-05-17T10:45:48.641Z,1002.47
2023-05-17T10:46:42.894Z,1002.56
2023-05-17T10:47:41.754Z,1002.48
2023-05-17T10:48:42.824Z,1002.46
2023-05-17T10:49:41.820Z,1002.42
2023-05-17T10:50:54.486Z,1002.44
2023-05-17T10:51:43.874Z,1002.47
2023-05-17T10:52:53.835Z,1002.46
2023-05-17T10:53:41.788Z,1002.50
2023-05-17T10:54:44.726Z,1002.52
2023-05-17T10:55:41.951Z,1002.43
2023-05-17T10:58:27.535Z,1002.43
2023-05-17T10:59:27.825Z,1002.45
2023-05-17T11:00:28.914Z,1002.53
2023-05-17T11:01:28.861Z,1002.44
2023-05-17T11:02:28.641Z,1002.50
2023-05-17T11:03:32.834Z,1002.44
2023-05-17T11:04:31.541Z,1002.39
2023-05-17T11:05:30.180Z,1002.38
2023-05-17T11:06:28.584Z,1002.36
2023-05-17T11:07:28.885Z,1002.34
2023-05-17T11:08:29.454Z,1002.43
2023-05-17T11:09:31.314Z,1002.50
2023-05-17T11:14:22.921Z,1002.62
2023-05-17T11:15:22.975Z,1002.57
2023-05-17T11:16:22.936Z,1002.46
2023-05-17T11:17:24.276Z,1002.47
2023-05-17T11:18:30.734Z,1002.45
2023-05-17T11:20:00.455Z,1002.45
2023-05-17T11:20:24.536Z,1002.44
2023-05-17T11:21:29.196Z,1002.45
2023-05-17T11:22:24.058Z,1002.43
2023-05-17T11:23:24.577Z,1002.38
2023-05-17T11:24:26.030Z,1002.43
2023-05-17T11:25:24.480Z,1002.37
2023-05-17T11:26:24.030Z,1002.44
2023-05-17T11:27:25.788Z,1002.48
2023-05-17T11:28:24.231Z,1002.46
2023-05-17T11:29:23.896Z,1002.37
2023-05-17T11:30:24.206Z,1002.45
2023-05-17T11:31:25.342Z,1002.37
2023-05-17T11:32:27.759Z,1002.40
2023-05-17T11:33:33.553Z,1002.43
2023-05-17T11:34:25.936Z,1002.54
2023-05-17T11:35:24.199Z,1002.43
2023-05-17T11:36:24.760Z,1002.52
2023-05-17T11:37:24.193Z,1002.54
2023-05-17T11:38:23.846Z,1002.48
2023-05-17T11:39:24.295Z,1002.52
2023-05-17T11:40:25.045Z,1002.53
2023-05-17T11:41:26.967Z,1002.57
2023-05-17T11:42:26.737Z,1002.49
2023-05-17T11:43:23.866Z,1002.51
2023-05-17T11:44:25.636Z,1002.43
2023-05-17T11:45:24.856Z,1002.53
2023-05-17T11:46:25.861Z,1002.49
2023-05-17T11:47:23.766Z,1002.44
2023-05-17T11:48:23.894Z,1002.47
2023-05-17T11:49:34.987Z,1002.54
2023-05-17T11:50:26.816Z,1002.51
2023-05-17T11:51:24.945Z,1002.40
2023-05-17T11:52:57.287Z,1002.53
2023-05-17T11:53:24.746Z,1002.56
2023-05-17T11:54:24.300Z,1002.52
2023-05-17T11:55:23.665Z,1002.54
2023-05-17T11:56:29.171Z,1002.49
2023-05-17T11:57:26.006Z,1002.53
2023-05-17T11:58:23.616Z,1002.54
2023-05-17T11:59:23.701Z,1002.47
2023-05-17T12:02:23.090Z,1002.59
2023-05-17T12:03:23.155Z,1002.52
2023-05-17T12:04:23.439Z,1002.53
2023-05-17T12:05:23.115Z,1002.45
2023-05-17T12:06:23.298Z,1002.44
2023-05-17T12:07:24.827Z,1002.44
2023-05-17T12:08:24.240Z,1002.49
2023-05-17T12:09:24.196Z,1002.45
2023-05-17T12:10:24.375Z,1002.44
2023-05-17T12:11:24.438Z,1002.41
2023-05-17T12:12:24.336Z,1002.49
2023-05-17T12:13:24.274Z,1002.54
2023-05-17T12:14:24.298Z,1002.47
2023-05-17T12:15:56.983Z,1002.49
2023-05-17T12:16:24.442Z,1002.55
2023-05-17T12:17:24.745Z,1002.61
2023-05-17T12:18:24.077Z,1002.64
2023-05-17T12:19:24.784Z,1002.59
2023-05-17T12:20:24.503Z,1002.61
2023-05-17T12:21:25.576Z,1002.52
2023-05-17T12:22:24.367Z,1002.52
2023-05-17T12:23:24.014Z,1002.54
2023-05-17T12:24:24.470Z,1002.52
2023-05-17T12:25:24.986Z,1002.49
2023-05-17T12:26:24.237Z,1002.46
2023-05-17T12:27:58.062Z,1002.48
2023-05-17T12:28:24.426Z,1002.53
2023-05-17T12:29:24.402Z,1002.48
2023-05-17T12:30:24.859Z,1002.48
2023-05-17T12:31:25.427Z,1002.45
2023-05-17T12:32:23.966Z,1002.45
2023-05-17T12:33:24.011Z,1002.45
2023-05-17T12:34:24.164Z,1002.46
2023-05-17T12:35:23.876Z,1002.39
2023-05-17T12:36:24.060Z,1002.42
2023-05-17T12:37:23.882Z,1002.34
2023-05-17T12:38:24.090Z,1002.42
2023-05-17T12:39:23.898Z,1002.47
2023-05-17T12:40:23.820Z,1002.41
2023-05-17T12:41:23.953Z,1002.48
2023-05-17T12:42:24.029Z,1002.44
2023-05-17T12:43:23.801Z,1002.48
2023-05-17T12:44:56.399Z,1002.44
2023-05-17T12:45:24.117Z,1002.45
2023-05-17T12:46:57.752Z,1002.47
2023-05-17T12:47:24.173Z,1002.46
2023-05-17T12:48:24.572Z,1002.44
2023-05-17T12:49:23.789Z,1002.39
2023-05-17T12:50:23.803Z,1002.36
2023-05-17T12:51:23.968Z,1002.40
2023-05-17T12:52:24.146Z,1002.47
2023-05-17T12:53:24.339Z,1002.47
2023-05-17T12:54:56.676Z,1002.40
2023-05-17T12:55:24.211Z,1002.46
2023-05-17T12:56:24.411Z,1002.39
2023-05-17T12:57:23.865Z,1002.42
2023-05-17T12:58:24.052Z,1002.38
2023-05-17T12:59:24.010Z,1002.40
2023-05-17T13:00:23.653Z,1002.40
2023-05-17T13:01:24.775Z,1002.32
2023-05-17T13:02:25.304Z,1002.31
2023-05-17T13:03:58.105Z,1002.21
2023-05-17T13:04:24.846Z,1002.22
2023-05-17T13:05:23.885Z,1002.24
2023-05-17T13:06:23.666Z,1002.32
2023-05-17T13:07:23.858Z,1002.28
2023-05-17T13:08:23.764Z,1002.29
2023-05-17T13:09:23.621Z,1002.36
2023-05-17T13:10:23.859Z,1002.38
2023-05-17T13:11:23.525Z,1002.33
2023-05-17T13:12:23.790Z,1002.38
2023-05-17T13:13:23.627Z,1002.48
2023-05-17T13:14:57.476Z,1002.42
2023-05-17T13:15:23.861Z,1002.46
2023-05-17T13:16:23.977Z,1002.45
2023-05-17T13:17:23.589Z,1002.43
2023-05-17T13:18:23.795Z,1002.41
2023-05-17T13:19:23.562Z,1002.38
2023-05-17T13:20:23.512Z,1002.35
2023-05-17T13:21:23.439Z,1002.32
2023-05-17T13:22:23.765Z,1002.39
2023-05-17T13:23:23.462Z,1002.41
2023-05-17T13:24:23.800Z,1002.35
2023-05-17T13:25:23.548Z,1002.41
2023-05-17T13:26:23.449Z,1002.37
2023-05-17T13:27:23.384Z,1002.41
2023-05-17T13:28:23.928Z,1002.39
2023-05-17T13:29:35.641Z,1002.37
2023-05-17T13:30:25.574Z,1002.43
2023-05-17T13:31:23.438Z,1002.33
2023-05-17T13:32:23.570Z,1002.31
2023-05-17T13:33:23.813Z,1002.34
2023-05-17T13:34:23.574Z,1002.26
2023-05-17T13:35:23.406Z,1002.38
2023-05-17T13:36:56.071Z,1002.30
2023-05-17T13:37:23.761Z,1002.34
2023-05-17T13:38:24.265Z,1002.32
2023-05-17T13:39:23.472Z,1002.36
2023-05-17T13:40:56.025Z,1002.39
2023-05-17T13:41:23.675Z,1002.40
2023-05-17T13:42:23.557Z,1002.43
2023-05-17T13:43:23.483Z,1002.35
2023-05-17T13:44:56.030Z,1002.35
2023-05-17T13:45:23.744Z,1002.34
2023-05-17T13:46:23.447Z,1002.39
2023-05-17T13:47:52.104Z,1002.31
2023-05-17T13:48:23.703Z,1002.38
2023-05-17T13:49:23.462Z,1002.39
2023-05-17T13:50:23.188Z,1002.36
2023-05-17T13:51:23.418Z,1002.35
2023-05-17T13:52:59.027Z,1002.29
2023-05-17T13:53:23.294Z,1002.28
2023-05-17T13:54:24.276Z,1002.27
2023-05-17T13:55:23.177Z,1002.23
2023-05-17T13:56:23.673Z,1002.20
2023-05-17T13:57:24.008Z,1002.25
2023-05-17T13:58:23.059Z,1002.29
2023-05-17T13:59:23.056Z,1002.27
2023-05-17T14:00:23.051Z,1002.18
2023-05-17T14:01:23.216Z,1002.21
2023-05-17T14:02:57.948Z,1002.19
2023-05-17T14:03:23.353Z,1002.29
2023-05-17T14:04:23.435Z,1002.24
2023-05-17T14:05:23.146Z,1002.30
2023-05-17T14:06:23.068Z,1002.22
2023-05-17T14:07:55.819Z,1002.16
2023-05-17T14:08:23.147Z,1002.17
2023-05-17T14:09:23.137Z,1002.21
2023-05-17T14:10:23.009Z,1002.28
2023-05-17T14:11:23.560Z,1002.16
2023-05-17T14:12:22.925Z,1002.26
2023-05-17T14:13:22.970Z,1002.26
2023-05-17T14:14:23.127Z,1002.30
2023-05-17T14:15:23.049Z,1002.29
2023-05-17T14:16:22.981Z,1002.30
2023-05-17T14:17:23.123Z,1002.21
2023-05-17T14:18:55.836Z,1002.25
2023-05-17T14:19:23.982Z,1002.30
2023-05-17T14:20:22.999Z,1002.32
2023-05-17T14:21:23.099Z,1002.37
2023-05-17T14:22:22.896Z,1002.27
2023-05-17T14:23:23.200Z,1002.42
2023-05-17T14:24:23.028Z,1002.46
2023-05-17T14:25:22.906Z,1002.46
2023-05-17T14:26:22.784Z,1002.48
2023-05-17T14:27:23.579Z,1002.35
2023-05-17T14:28:22.937Z,1002.36
2023-05-17T14:29:22.789Z,1002.49
2023-05-17T14:30:22.780Z,1002.34
2023-05-17T14:31:22.869Z,1002.38
2023-05-17T14:32:55.530Z,1002.38
2023-05-17T14:33:23.313Z,1002.37
2023-05-17T14:34:23.171Z,1002.41
2023-05-17T14:35:22.833Z,1002.29
2023-05-17T14:36:22.974Z,1002.27
2023-05-17T14:37:23.253Z,1002.32
2023-05-17T14:38:22.681Z,1002.31
2023-05-17T14:39:22.700Z,1002.35
2023-05-17T14:40:22.809Z,1002.37
2023-05-17T14:41:22.661Z,1002.52
2023-05-17T14:42:55.633Z,1002.55
2023-05-17T14:43:22.999Z,1002.48
2023-05-17T14:44:58.974Z,1002.44
2023-05-17T14:45:23.211Z,1002.45
2023-05-17T14:46:23.103Z,1002.40
2023-05-17T14:47:22.908Z,1002.48
2023-05-17T14:48:22.995Z,1002.45
2023-05-17T14:49:22.726Z,1002.44
2023-05-17T14:50:22.750Z,1002.45
2023-05-17T14:51:22.500Z,1002.51
2023-05-17T14:52:22.634Z,1002.42
2023-05-17T14:53:22.670Z,1002.35
2023-05-17T14:54:22.680Z,1002.33
2023-05-17T14:55:22.499Z,1002.34
2023-05-17T14:56:22.496Z,1002.41
2023-05-17T14:57:22.592Z,1002.37
2023-05-17T14:58:22.598Z,1002.38
2023-05-17T14:59:23.445Z,1002.32
2023-05-17T15:00:58.895Z,1002.46
2023-05-17T15:01:58.654Z,1002.47
2023-05-17T15:02:23.177Z,1002.46
2023-05-17T15:03:58.675Z,1002.51
2023-05-17T15:04:23.170Z,1002.47
2023-05-17T15:05:23.361Z,1002.48
2023-05-17T15:06:55.066Z,1002.45
2023-05-17T15:07:56.224Z,1002.51
2023-05-17T15:08:22.979Z,1002.48
2023-05-17T15:09:22.517Z,1002.47
2023-05-17T15:10:22.709Z,1002.33
2023-05-17T15:11:22.380Z,1002.51
2023-05-17T15:12:22.410Z,1002.28
2023-05-17T15:13:22.372Z,1002.31
2023-05-17T15:14:22.582Z,1002.31
2023-05-17T15:15:22.479Z,1002.43
2023-05-17T15:16:22.461Z,1002.32
2023-05-17T15:17:22.315Z,1002.26
2023-05-17T15:18:22.526Z,1002.34
2023-05-17T15:19:22.344Z,1002.48
2023-05-17T15:20:22.442Z,1002.45
2023-05-17T15:21:22.331Z,1002.44
2023-05-17T15:22:22.239Z,1002.23
2023-05-17T15:23:55.031Z,1002.29
2023-05-17T15:24:22.813Z,1002.46
2023-05-17T15:25:22.250Z,1002.46
2023-05-17T15:26:22.268Z,1002.39
2023-05-17T15:27:22.184Z,1002.45
2023-05-17T15:28:22.331Z,1002.46
2023-05-17T15:29:22.263Z,1002.47
2023-05-17T15:30:22.334Z,1002.51
2023-05-17T15:31:22.444Z,1002.44
2023-05-17T15:32:22.145Z,1002.45
2023-05-17T15:33:22.690Z,1002.51
2023-05-17T15:34:22.293Z,1002.39